Time;durP1;ratioP1;P1;durP2;ratioP2;P2;SDS_P1;SDS_P2;PMS_P1;PMS_P2;Temp;Humidity;BMP_temperature;BMP_pressure;BME280_temperature;BME280_humidity;BME280_pressure;Samples;Min_cycle;Max_cycle;Signal;HPM_P1;HPM_P2
2022/09/17 00:01:09;;;;;;;0.40;0.40;;;9.90;99.90;;;;;;4944403;29;20032;-72
2022/09/17 00:03:34;;;;;;;4.38;0.65;;;9.80;99.90;;;;;;4944690;29;20389;-72
2022/09/17 00:06:06;;;;;;;0.45;0.43;;;9.80;99.90;;;;;;4944485;29;20028;-72
2022/09/17 00:08:34;;;;;;;4.00;0.47;;;9.80;99.90;;;;;;4959909;29;20027;-72
2022/09/17 00:11:07;;;;;;;0.28;0.28;;;9.70;99.90;;;;;;4944526;29;20019;-73
2022/09/17 00:13:33;;;;;;;1.05;0.90;;;9.60;99.90;;;;;;4959635;28;20311;-72
2022/09/17 00:15:58;;;;;;;3.90;0.77;;;9.60;99.90;;;;;;4959387;28;20042;-73
2022/09/17 00:18:24;;;;;;;0.60;0.50;;;9.70;99.90;;;;;;4942981;29;20022;-72
2022/09/17 00:20:50;;;;;;;1.38;0.80;;;9.60;99.90;;;;;;4944223;29;20035;-72
2022/09/17 00:23:15;;;;;;;2.25;0.55;;;9.60;99.90;;;;;;4943829;29;20050;-72
2022/09/17 00:25:44;;;;;;;0.60;0.60;;;9.60;99.90;;;;;;4943850;29;20036;-72
2022/09/17 00:28:12;;;;;;;0.43;0.43;;;9.60;99.90;;;;;;4944462;29;20323;-72
2022/09/17 00:30:43;;;;;;;0.85;0.82;;;10.20;99.90;;;;;;4943984;29;20367;-72
2022/09/17 00:33:12;;;;;;;0.30;0.30;;;9.40;99.90;;;;;;4944289;29;20184;-72
2022/09/17 00:35:37;;;;;;;1.02;1.02;;;9.40;99.90;;;;;;4943948;29;20031;-72
2022/09/17 00:38:04;;;;;;;1.63;0.70;;;9.30;99.90;;;;;;4943918;29;20078;-72
2022/09/17 00:40:29;;;;;;;1.13;0.98;;;9.20;99.90;;;;;;4944118;29;20027;-72
2022/09/17 00:42:55;;;;;;;0.65;0.55;;;9.20;99.90;;;;;;4943735;29;20031;-72
2022/09/17 00:45:22;;;;;;;3.15;1.13;;;9.20;99.90;;;;;;4958615;29;20036;-72
2022/09/17 00:47:55;;;;;;;0.40;0.40;;;9.10;99.90;;;;;;4943631;29;20493;-72
2022/09/17 00:50:40;;;;;;;0.68;0.68;;;9.10;99.90;;;;;;4958152;28;20204;-72
2022/09/17 00:53:11;;;;;;;0.95;0.50;;;9.10;99.90;;;;;;4943667;29;20318;-72
2022/09/17 00:55:52;;;;;;;0.90;0.90;;;9.10;99.90;;;;;;4942996;29;20052;-72
2022/09/17 00:58:21;;;;;;;0.93;0.50;;;9.20;99.90;;;;;;4958441;29;20090;-72
2022/09/17 01:00:47;;;;;;;0.50;0.50;;;9.40;99.90;;;;;;4958211;29;20095;-72
2022/09/17 01:03:13;;;;;;;0.88;0.77;;;9.30;99.90;;;;;;4943919;29;20039;-72
2022/09/17 01:06:16;;;;;;;1.65;0.60;;;9.30;99.90;;;;;;4944121;29;20058;-72
2022/09/17 01:08:47;;;;;;;0.82;0.82;;;9.40;99.90;;;;;;4942278;29;20044;-72
2022/09/17 01:11:40;;;;;;;1.13;0.98;;;9.40;99.90;;;;;;4943184;29;20388;-72
2022/09/17 01:14:32;;;;;;;0.57;0.57;;;9.50;99.90;;;;;;4943062;29;20023;-72
2022/09/17 01:17:12;;;;;;;0.70;0.70;;;9.50;99.90;;;;;;4943425;29;20035;-72
2022/09/17 01:20:02;;;;;;;1.27;0.80;;;9.50;99.90;;;;;;4942967;29;20326;-72
2022/09/17 01:22:59;;;;;;;0.93;0.88;;;9.50;99.90;;;;;;4943567;29;20046;-72
2022/09/17 01:26:02;;;;;;;0.40;0.40;;;9.50;99.90;;;;;;4942943;29;20046;-72
2022/09/17 01:28:44;;;;;;;0.63;0.63;;;9.50;99.90;;;;;;4958321;28;20036;-72
2022/09/17 01:31:18;;;;;;;1.00;0.52;;;9.40;99.90;;;;;;4943627;29;20326;-73
2022/09/17 01:33:46;;;;;;;2.13;0.73;;;9.40;99.90;;;;;;4946008;29;20035;-72
2022/09/17 01:36:27;;;;;;;0.57;0.52;;;9.30;99.90;;;;;;4945947;29;20035;-72
2022/09/17 01:38:57;;;;;;;0.40;0.40;;;9.30;99.90;;;;;;4944213;29;20027;-73
2022/09/17 01:41:26;;;;;;;0.90;0.90;;;9.30;99.90;;;;;;4943622;29;20026;-73
2022/09/17 01:43:58;;;;;;;0.47;0.47;;;9.20;99.90;;;;;;4943336;29;20027;-72
2022/09/17 01:46:31;;;;;;;0.63;0.63;;;9.20;99.90;;;;;;4942475;29;20043;-72
2022/09/17 01:49:00;;;;;;;0.43;0.43;;;9.20;99.90;;;;;;4943160;29;20026;-72
2022/09/17 01:51:28;;;;;;;;;;;9.20;99.90;;;;;;4942874;29;20259;-72
2022/09/17 01:54:06;;;;;;;1.08;0.40;;;9.20;99.90;;;;;;4942517;29;19949;-72
2022/09/17 01:57:10;;;;;;;10.57;0.60;;;9.20;99.90;;;;;;4942376;29;20066;-72
2022/09/17 01:59:40;;;;;;;0.60;0.60;;;9.20;99.90;;;;;;4942060;29;20048;-73
2022/09/17 02:02:16;;;;;;;3.25;0.82;;;9.20;99.90;;;;;;4942524;29;20034;-73
2022/09/17 02:04:58;;;;;;;3.30;0.73;;;9.20;99.90;;;;;;4942577;29;20164;-72
2022/09/17 02:07:24;;;;;;;0.57;0.40;;;9.20;99.90;;;;;;4956341;28;20030;-72
2022/09/17 02:10:05;;;;;;;5.78;0.85;;;9.20;99.90;;;;;;4942353;29;20016;-72
2022/09/17 02:12:38;;;;;;;0.73;0.70;;;9.20;99.90;;;;;;4942137;29;20520;-72
2022/09/17 02:15:13;;;;;;;0.30;0.30;;;9.20;99.90;;;;;;4941268;29;20091;-72
2022/09/17 02:17:45;;;;;;;0.63;0.40;;;9.30;99.90;;;;;;4940872;29;20334;-72
2022/09/17 02:20:12;;;;;;;0.35;0.35;;;9.20;99.90;;;;;;4940796;29;20020;-73
2022/09/17 02:22:47;;;;;;;0.82;0.82;;;9.00;99.90;;;;;;4940538;29;20042;-72
2022/09/17 02:25:22;;;;;;;0.40;0.40;;;9.20;99.90;;;;;;4936236;29;20042;-73
2022/09/17 02:28:02;;;;;;;5.38;0.57;;;9.20;99.90;;;;;;4935055;29;20023;-72
2022/09/17 02:30:28;;;;;;;0.90;0.63;;;9.20;99.90;;;;;;4936164;29;20376;-72
2022/09/17 02:32:55;;;;;;;3.17;0.98;;;9.20;99.90;;;;;;4941000;29;20088;-72
2022/09/17 02:35:21;;;;;;;0.25;0.25;;;9.20;99.90;;;;;;4940766;29;20038;-72
2022/09/17 02:37:46;;;;;;;1.02;0.65;;;9.20;99.90;;;;;;4942031;29;20247;-72
2022/09/17 02:40:16;;;;;;;0.93;0.60;;;9.20;99.90;;;;;;4955999;29;20039;-71
2022/09/17 02:43:00;;;;;;;;;;;10.10;99.90;;;;;;4941569;29;20024;-72
2022/09/17 02:45:32;;;;;;;0.43;0.43;;;9.20;99.90;;;;;;4941418;29;20005;-73
2022/09/17 02:48:04;;;;;;;4.57;1.38;;;9.20;99.90;;;;;;4941735;29;20028;-74
2022/09/17 02:50:50;;;;;;;0.85;0.85;;;9.10;99.90;;;;;;4942134;29;20036;-72
2022/09/17 02:53:37;;;;;;;2.42;0.65;;;9.10;99.90;;;;;;4940751;29;20028;-73
2022/09/17 02:56:19;;;;;;;0.30;0.30;;;9.10;99.90;;;;;;4941853;29;20054;-72
2022/09/17 02:59:08;;;;;;;0.70;0.40;;;9.00;99.90;;;;;;4942020;29;20252;-73
2022/09/17 03:01:40;;;;;;;1.27;1.05;;;;;;;;;;4943392;29;20050;-73
2022/09/17 03:04:10;;;;;;;1.67;1.55;;;8.80;99.90;;;;;;4945820;29;20028;-72
2022/09/17 03:06:37;;;;;;;0.35;0.35;;;8.70;99.90;;;;;;4945523;29;20028;-72
2022/09/17 03:09:06;;;;;;;0.75;0.35;;;8.70;99.90;;;;;;4946083;29;20215;-73
2022/09/17 03:11:32;;;;;;;0.95;0.90;;;8.60;99.90;;;;;;4945484;29;20083;-72
2022/09/17 03:13:58;;;;;;;0.20;0.20;;;8.60;99.90;;;;;;4946285;28;20098;-72
2022/09/17 03:16:24;;;;;;;7.68;1.52;;;8.50;99.90;;;;;;4945462;29;20035;-74
2022/09/17 03:18:50;;;;;;;2.78;0.73;;;8.50;99.90;;;;;;4946162;29;20116;-72
2022/09/17 03:21:15;;;;;;;1.98;0.63;;;8.40;99.90;;;;;;4945570;29;20024;-71
2022/09/17 03:23:41;;;;;;;0.13;0.13;;;8.40;99.90;;;;;;4945570;29;20052;-71
2022/09/17 03:26:07;;;;;;;0.82;0.82;;;8.30;99.90;;;;;;4960431;29;20079;-72
2022/09/17 03:28:32;;;;;;;0.32;0.32;;;8.30;99.90;;;;;;4945880;29;20230;-72
2022/09/17 03:30:58;;;;;;;2.80;1.45;;;8.30;99.90;;;;;;4945408;29;20035;-72
2022/09/17 03:33:24;;;;;;;0.17;0.17;;;8.20;99.90;;;;;;4945305;29;20042;-72
2022/09/17 03:35:49;;;;;;;0.73;0.63;;;8.20;99.90;;;;;;4945472;29;20028;-72
2022/09/17 03:38:15;;;;;;;0.85;0.30;;;8.10;99.90;;;;;;4945152;29;20358;-72
2022/09/17 03:40:41;;;;;;;2.65;1.05;;;8.10;99.90;;;;;;4945161;29;20020;-72
2022/09/17 03:43:07;;;;;;;0.20;0.20;;;8.00;99.90;;;;;;4945099;29;20059;-72
2022/09/17 03:45:33;;;;;;;0.30;0.20;;;8.00;99.90;;;;;;4945255;29;20036;-72
2022/09/17 03:47:59;;;;;;;0.57;0.57;;;8.00;99.90;;;;;;4945314;29;20028;-72
2022/09/17 03:50:24;;;;;;;0.43;0.43;;;8.00;99.90;;;;;;4944464;29;20126;-71
2022/09/17 03:52:50;;;;;;;0.40;0.32;;;8.00;99.90;;;;;;4945796;29;20083;-72
2022/09/17 03:55:16;;;;;;;0.50;0.50;;;8.00;99.90;;;;;;4945206;29;20066;-72
2022/09/17 03:57:42;;;;;;;0.63;0.63;;;8.00;99.90;;;;;;4944748;28;20247;-72
2022/09/17 04:00:08;;;;;;;3.90;0.52;;;6.20;99.90;;;;;;4959970;28;20331;-72
2022/09/17 04:02:34;;;;;;;3.38;1.70;;;;;;;;;;4944728;29;20343;-71
2022/09/17 04:05:00;;;;;;;3.25;1.17;;;8.00;99.90;;;;;;4959814;28;20219;-73
2022/09/17 04:07:25;;;;;;;0.28;0.28;;;7.90;99.90;;;;;;4959906;28;20023;-72
2022/09/17 04:09:51;;;;;;;0.40;0.40;;;7.90;99.90;;;;;;4945080;29;20046;-73
2022/09/17 04:12:17;;;;;;;0.40;0.40;;;7.90;99.90;;;;;;4945349;29;20114;-72
2022/09/17 04:14:42;;;;;;;1.05;0.70;;;8.00;99.90;;;;;;4945586;29;20024;-74
2022/09/17 04:17:08;;;;;;;1.40;0.50;;;9.00;99.90;;;;;;4945492;29;20031;-72
2022/09/17 04:19:36;;;;;;;8.20;1.00;;;8.00;99.90;;;;;;4945745;29;20286;-72
2022/09/17 04:22:02;;;;;;;0.28;0.28;;;8.00;99.90;;;;;;4960053;29;20167;-72
2022/09/17 04:24:27;;;;;;;3.28;1.52;;;8.00;99.90;;;;;;4945407;29;20200;-72
2022/09/17 04:26:53;;;;;;;3.70;0.65;;;8.10;99.90;;;;;;4960130;28;20032;-72
2022/09/17 04:29:19;;;;;;;0.98;0.50;;;8.10;99.90;;;;;;4945755;29;20020;-71
2022/09/17 04:31:44;;;;;;;0.73;0.73;;;8.10;99.90;;;;;;4945320;29;20167;-72
2022/09/17 04:34:10;;;;;;;1.33;1.10;;;8.10;99.90;;;;;;4945198;29;20358;-72
2022/09/17 04:36:36;;;;;;;0.60;0.60;;;8.10;99.90;;;;;;4944114;29;20383;-72
2022/09/17 04:39:01;;;;;;;6.32;0.90;;;8.10;99.90;;;;;;4945568;29;20086;-72
2022/09/17 04:41:27;;;;;;;0.43;0.43;;;8.10;99.90;;;;;;4945044;29;20360;-72
2022/09/17 04:43:53;;;;;;;0.60;0.60;;;8.10;99.90;;;;;;4944655;29;20030;-72
2022/09/17 04:46:18;;;;;;;1.00;1.00;;;8.10;99.90;;;;;;4944375;29;20035;-72
2022/09/17 04:48:44;;;;;;;0.50;0.50;;;8.10;99.90;;;;;;4944975;29;20023;-72
2022/09/17 04:51:09;;;;;;;1.10;0.45;;;8.10;99.90;;;;;;4946097;29;20312;-72
2022/09/17 04:53:38;;;;;;;0.35;0.35;;;8.20;99.90;;;;;;4945533;29;20071;-71
2022/09/17 04:56:04;;;;;;;0.88;0.70;;;8.20;99.90;;;;;;4944962;29;20051;-72
2022/09/17 04:58:30;;;;;;;1.50;0.95;;;9.10;99.90;;;;;;4946099;29;20026;-72
2022/09/17 05:00:55;;;;;;;0.40;0.40;;;8.20;99.90;;;;;;4945710;29;20216;-72
2022/09/17 05:03:21;;;;;;;0.65;0.65;;;8.30;99.90;;;;;;4945870;29;20031;-72
2022/09/17 05:05:47;;;;;;;1.67;1.13;;;8.30;99.90;;;;;;4944133;29;20039;-72
2022/09/17 05:08:12;;;;;;;0.50;0.50;;;8.30;99.90;;;;;;4943733;29;20316;-72
2022/09/17 05:10:38;;;;;;;1.85;0.40;;;8.40;99.90;;;;;;4958002;28;20043;-72
2022/09/17 05:13:04;;;;;;;0.30;0.30;;;8.30;99.90;;;;;;4943705;29;20051;-72
2022/09/17 05:15:30;;;;;;;0.73;0.73;;;9.40;99.90;;;;;;4944386;29;20032;-73
2022/09/17 05:17:56;;;;;;;0.50;0.50;;;8.40;99.90;;;;;;4944148;29;20091;-72
2022/09/17 05:20:22;;;;;;;0.40;0.40;;;8.40;99.90;;;;;;4944234;29;20274;-71
2022/09/17 05:22:52;;;;;;;0.73;0.73;;;8.40;99.90;;;;;;4959454;28;20170;-72
2022/09/17 05:25:22;;;;;;;1.10;0.60;;;8.40;99.90;;;;;;4942720;29;20051;-71
2022/09/17 05:27:48;;;;;;;0.63;0.60;;;8.40;99.90;;;;;;4944216;29;20068;-72
2022/09/17 05:30:14;;;;;;;1.55;0.63;;;8.40;99.90;;;;;;4941681;29;20380;-72
2022/09/17 05:32:39;;;;;;;0.85;0.85;;;8.40;99.90;;;;;;4939944;29;20028;-73
2022/09/17 05:35:07;;;;;;;5.05;0.50;;;8.40;99.90;;;;;;4943890;29;20067;-72
2022/09/17 05:37:33;;;;;;;9.23;0.55;;;8.40;99.90;;;;;;4958761;28;20366;-71
2022/09/17 05:39:58;;;;;;;0.50;0.50;;;8.40;99.90;;;;;;4943582;29;20051;-72
2022/09/17 05:42:24;;;;;;;0.20;0.20;;;8.40;99.90;;;;;;4943414;29;20059;-71
2022/09/17 05:44:50;;;;;;;0.40;0.40;;;8.40;99.90;;;;;;4943828;29;20027;-72
2022/09/17 05:47:15;;;;;;;0.22;0.22;;;8.50;99.90;;;;;;4943297;29;20342;-71
2022/09/17 05:49:41;;;;;;;1.20;0.90;;;8.50;99.90;;;;;;4942678;29;20216;-73
2022/09/17 05:52:07;;;;;;;0.32;0.32;;;8.50;99.90;;;;;;4942758;29;20035;-71
2022/09/17 05:54:32;;;;;;;1.10;1.05;;;8.50;99.90;;;;;;4943352;29;20052;-72
2022/09/17 05:56:58;;;;;;;0.20;0.20;;;8.60;99.90;;;;;;4943134;29;20031;-73
2022/09/17 05:59:23;;;;;;;0.52;0.52;;;8.60;99.90;;;;;;4943269;29;20058;-72
2022/09/17 06:01:49;;;;;;;0.40;0.40;;;8.60;99.90;;;;;;4942985;29;20314;-72
2022/09/17 06:04:16;;;;;;;0.20;0.20;;;8.60;99.90;;;;;;4943865;29;20024;-72
2022/09/17 06:06:42;;;;;;;0.70;0.55;;;8.60;99.90;;;;;;4957318;29;20123;-72
2022/09/17 06:09:09;;;;;;;0.28;0.28;;;8.70;99.90;;;;;;4943316;29;20027;-72
2022/09/17 06:11:35;;;;;;;1.45;0.47;;;8.80;99.90;;;;;;4943762;29;20019;-72
2022/09/17 06:14:01;;;;;;;0.80;0.80;;;8.90;99.90;;;;;;4943576;29;20303;-71
2022/09/17 06:16:26;;;;;;;4.40;0.95;;;8.80;99.90;;;;;;4943564;29;20046;-73
2022/09/17 06:18:52;;;;;;;1.17;1.08;;;8.90;99.90;;;;;;4942327;29;20091;-72
2022/09/17 06:21:20;;;;;;;0.40;0.40;;;8.90;99.90;;;;;;4945281;29;20140;-72
2022/09/17 06:23:46;;;;;;;5.18;0.45;;;8.90;99.90;;;;;;4945187;29;20347;-73
2022/09/17 06:26:12;;;;;;;0.55;0.40;;;8.90;99.90;;;;;;4960235;29;20038;-73
2022/09/17 06:28:38;;;;;;;0.28;0.28;;;8.90;99.90;;;;;;4959740;28;20019;-73
2022/09/17 06:31:07;;;;;;;0.95;0.95;;;8.90;99.90;;;;;;4944768;29;20024;-73
2022/09/17 06:33:35;;;;;;;1.10;0.50;;;8.90;99.90;;;;;;4943758;29;20031;-73
2022/09/17 06:36:06;;;;;;;0.40;0.40;;;8.90;99.90;;;;;;4944004;29;20044;-73
2022/09/17 06:38:33;;;;;;;0.40;0.40;;;9.20;99.90;;;;;;4949347;29;20099;-73
2022/09/17 06:40:59;;;;;;;1.30;0.20;;;8.90;99.90;;;;;;4963346;29;20028;-74
2022/09/17 06:43:24;;;;;;;0.40;0.40;;;9.00;99.90;;;;;;4961741;28;20252;-74
2022/09/17 06:45:55;;;;;;;4.95;0.77;;;9.00;99.90;;;;;;4948692;29;20028;-73
2022/09/17 06:48:22;;;;;;;3.35;0.40;;;9.10;99.90;;;;;;4962739;28;20034;-72
2022/09/17 06:50:48;;;;;;;0.20;0.20;;;9.10;99.90;;;;;;4947590;29;20047;-71
2022/09/17 06:53:14;;;;;;;1.33;1.00;;;9.10;99.90;;;;;;4947933;29;20030;-74
2022/09/17 06:55:40;;;;;;;0.47;0.40;;;9.10;99.90;;;;;;4947872;29;20051;-72
2022/09/17 06:58:06;;;;;;;4.40;0.77;;;9.10;99.90;;;;;;4948096;29;20036;-71
2022/09/17 07:00:32;;;;;;;0.43;0.43;;;9.10;99.90;;;;;;4948089;29;20047;-73
2022/09/17 07:02:59;;;;;;;0.35;0.30;;;9.10;99.90;;;;;;4947992;29;20035;-73
2022/09/17 07:05:26;;;;;;;1.23;0.95;;;9.10;99.90;;;;;;4947263;29;20305;-73
2022/09/17 07:07:55;;;;;;;0.50;0.50;;;9.20;99.90;;;;;;4961854;28;20102;-72
2022/09/17 07:10:25;;;;;;;2.00;0.97;;;9.20;99.90;;;;;;4945068;29;20034;-73
2022/09/17 07:12:51;;;;;;;0.40;0.40;;;9.20;99.90;;;;;;4947582;29;20027;-73
2022/09/17 07:15:17;;;;;;;0.63;0.40;;;9.10;99.90;;;;;;4946961;29;20267;-73
2022/09/17 07:17:43;;;;;;;2.30;0.68;;;9.00;99.90;;;;;;4945397;29;20043;-71
2022/09/17 07:20:09;;;;;;;0.32;0.28;;;8.90;99.90;;;;;;4944600;29;20024;-72
2022/09/17 07:22:35;;;;;;;0.20;0.20;;;8.90;99.90;;;;;;4945234;29;20015;-72
2022/09/17 07:25:01;;;;;;;0.38;0.38;;;8.90;99.90;;;;;;4965052;28;20051;-71
2022/09/17 07:27:28;;;;;;;0.77;0.60;;;8.90;99.90;;;;;;4963746;28;20029;-72
2022/09/17 07:29:54;;;;;;;11.20;0.65;;;8.90;99.90;;;;;;4960095;28;20023;-73
2022/09/17 07:32:20;;;;;;;4.18;0.30;;;9.00;99.90;;;;;;4953529;28;20085;-72
2022/09/17 07:34:47;;;;;;;0.65;0.63;;;9.10;99.90;;;;;;4953920;29;20036;-72
2022/09/17 07:37:13;;;;;;;0.30;0.30;;;9.30;99.90;;;;;;4952424;28;20090;-72
2022/09/17 07:39:38;;;;;;;0.13;0.13;;;9.50;99.90;;;;;;4953320;29;20094;-73
2022/09/17 07:42:04;;;;;;;0.82;0.70;;;9.70;99.90;;;;;;4949351;28;20501;-72
2022/09/17 07:44:30;;;;;;;0.68;0.57;;;9.60;99.90;;;;;;4946060;28;20046;-72
2022/09/17 07:46:56;;;;;;;1.48;1.38;;;9.80;99.90;;;;;;4947845;28;20069;-72
2022/09/17 07:49:21;;;;;;;0.20;0.20;;;10.00;99.90;;;;;;4947922;29;20030;-73
2022/09/17 07:51:47;;;;;;;0.20;0.20;;;10.00;99.90;;;;;;4948636;28;20113;-73
2022/09/17 07:54:12;;;;;;;0.50;0.40;;;10.20;99.90;;;;;;4946995;28;20050;-73
2022/09/17 07:56:38;;;;;;;0.40;0.40;;;10.30;99.90;;;;;;4948025;28;20031;-74
2022/09/17 07:59:04;;;;;;;1.30;0.38;;;10.40;99.90;;;;;;4946950;29;20102;-73
2022/09/17 08:01:33;;;;;;;0.75;0.65;;;10.50;99.90;;;;;;4948256;28;20574;-73
2022/09/17 08:03:59;;;;;;;5.13;0.80;;;10.60;99.90;;;;;;4952018;28;20035;-73
2022/09/17 08:06:28;;;;;;;1.33;0.75;;;10.60;99.90;;;;;;4956905;28;20062;-74
2022/09/17 08:08:56;;;;;;;0.25;0.25;;;10.70;99.90;;;;;;4953480;28;20031;-73
2022/09/17 08:11:25;;;;;;;0.15;0.15;;;11.00;99.90;;;;;;4947916;29;20543;-74
2022/09/17 08:13:52;;;;;;;0.10;0.10;;;10.50;99.90;;;;;;4947922;28;20035;-73
2022/09/17 08:16:19;;;;;;;0.50;0.40;;;10.50;99.90;;;;;;4947916;28;20210;-72
2022/09/17 08:19:02;;;;;;;0.17;0.17;;;10.40;99.90;;;;;;4970205;28;20034;-85
2022/09/17 08:21:27;;;;;;;0.10;0.10;;;10.40;99.90;;;;;;4946596;28;20145;-72
2022/09/17 08:23:53;;;;;;;0.30;0.30;;;10.50;99.90;;;;;;4947273;29;20539;-74
2022/09/17 08:26:21;;;;;;;0.50;0.50;;;10.90;99.90;;;;;;4947155;28;20035;-74
2022/09/17 08:28:53;;;;;;;0.98;0.63;;;11.30;99.90;;;;;;4952111;28;20027;-74
2022/09/17 08:31:20;;;;;;;0.52;0.52;;;11.30;99.90;;;;;;4963567;28;20575;-75
2022/09/17 08:33:46;;;;;;;0.93;0.47;;;11.30;99.90;;;;;;4951141;29;20106;-75
2022/09/17 08:36:14;;;;;;;0.60;0.60;;;11.30;99.90;;;;;;4953562;29;20034;-74
2022/09/17 08:38:39;;;;;;;0.88;0.88;;;11.20;99.90;;;;;;4956933;28;20488;-74
2022/09/17 08:41:11;;;;;;;0.28;0.28;;;11.20;99.90;;;;;;4955012;29;20028;-75
2022/09/17 08:44:01;;;;;;;1.25;0.47;;;11.30;99.90;;;;;;4951687;29;20023;-74
2022/09/17 08:46:30;;;;;;;0.20;0.20;;;11.30;99.90;;;;;;4953486;29;20531;-74
2022/09/17 08:49:11;;;;;;;0.65;0.65;;;11.20;99.90;;;;;;4953545;29;20059;-74
2022/09/17 08:51:54;;;;;;;3.33;1.10;;;11.00;99.90;;;;;;4953535;28;20160;-74
2022/09/17 08:54:46;;;;;;;0.77;0.43;;;10.70;99.90;;;;;;4952009;29;20023;-73
2022/09/17 08:57:26;;;;;;;0.47;0.47;;;10.80;99.90;;;;;;4954311;28;20039;-74
2022/09/17 09:00:05;;;;;;;1.48;0.88;;;11.00;99.90;;;;;;4960816;28;20027;-73
2022/09/17 09:02:49;;;;;;;1.17;1.13;;;10.90;99.90;;;;;;4977105;28;20046;-73
2022/09/17 09:05:20;;;;;;;1.00;0.63;;;11.00;99.90;;;;;;4958045;29;20411;-74
2022/09/17 09:07:51;;;;;;;0.80;0.40;;;11.10;99.90;;;;;;4943270;29;20043;-74
2022/09/17 09:10:24;;;;;;;0.40;0.40;;;11.50;99.90;;;;;;4951402;29;20034;-75
2022/09/17 09:12:55;;;;;;;1.27;0.40;;;11.90;99.90;;;;;;4960213;29;20015;-74
2022/09/17 09:15:35;;;;;;;0.80;0.57;;;12.00;99.90;;;;;;4960928;28;20102;-74
2022/09/17 09:18:15;;;;;;;0.47;0.43;;;11.80;99.90;;;;;;4957611;28;20055;-74
2022/09/17 09:20:54;;;;;;;0.47;0.47;;;11.70;99.90;;;;;;4953398;29;20023;-74
2022/09/17 09:23:38;;;;;;;0.73;0.35;;;11.70;99.90;;;;;;4970203;28;20023;-74
2022/09/17 09:26:20;;;;;;;1.00;0.73;;;11.80;99.90;;;;;;4956507;28;20039;-75
2022/09/17 09:29:16;;;;;;;2.30;0.50;;;11.80;99.90;;;;;;4956068;28;20087;-74
2022/09/17 09:32:03;;;;;;;0.20;0.20;;;11.70;99.90;;;;;;4956367;28;20087;-74
2022/09/17 09:34:32;;;;;;;2.25;0.90;;;11.90;99.90;;;;;;4958121;28;20023;-74
2022/09/17 09:37:11;;;;;;;0.10;0.10;;;12.00;99.90;;;;;;4949888;28;20109;-74
2022/09/17 09:39:40;;;;;;;0.28;0.28;;;12.30;99.90;;;;;;4949255;29;20023;-74
2022/09/17 09:42:33;;;;;;;0.47;0.47;;;12.60;99.90;;;;;;4953593;28;20151;-74
2022/09/17 09:45:05;;;;;;;1.58;1.15;;;12.50;99.90;;;;;;4948508;29;20062;-74
2022/09/17 09:47:56;;;;;;;0.40;0.40;;;12.70;99.90;;;;;;4960949;28;20031;-74
2022/09/17 09:50:47;;;;;;;4.85;0.88;;;12.40;99.90;;;;;;4960392;28;20023;-74
2022/09/17 09:53:30;;;;;;;0.20;0.20;;;12.40;99.90;;;;;;4957269;28;20118;-74
2022/09/17 09:56:14;;;;;;;4.28;0.68;;;12.30;99.90;;;;;;4965913;28;20529;-74
2022/09/17 09:58:42;;;;;;;0.77;0.77;;;12.30;99.90;;;;;;4968316;28;20030;-74
2022/09/17 10:01:19;;;;;;;0.40;0.40;;;12.20;99.90;;;;;;4968173;28;20054;-74
2022/09/17 10:03:46;;;;;;;2.47;1.08;;;12.00;99.90;;;;;;4971240;28;20019;-75
2022/09/17 10:06:14;;;;;;;0.30;0.30;;;12.20;99.90;;;;;;4971447;28;20027;-74
2022/09/17 10:08:47;;;;;;;6.20;1.52;;;12.50;99.90;;;;;;4972447;28;20510;-74
2022/09/17 10:11:13;;;;;;;1.35;0.40;;;12.60;99.90;;;;;;4973338;28;20114;-74
2022/09/17 10:13:39;;;;;;;1.65;0.95;;;12.50;99.90;;;;;;4963717;28;20102;-74
2022/09/17 10:16:26;;;;;;;0.65;0.35;;;12.60;99.90;;;;;;4955398;28;20035;-74
2022/09/17 10:19:07;;;;;;;0.60;0.60;;;12.60;99.90;;;;;;4950886;28;20492;-74
2022/09/17 10:21:32;;;;;;;0.32;0.32;;;12.30;99.90;;;;;;4952914;29;20341;-74
2022/09/17 10:24:00;;;;;;;0.43;0.43;;;12.10;99.90;;;;;;4951994;29;20030;-75
2022/09/17 10:26:27;;;;;;;2.78;0.35;;;12.00;99.90;;;;;;4952231;28;20027;-75
2022/09/17 10:28:56;;;;;;;11.60;2.17;;;12.30;99.90;;;;;;4952753;29;20551;-74
2022/09/17 10:31:22;;;;;;;2.00;0.20;;;12.70;99.90;;;;;;4967539;28;20426;-74
2022/09/17 10:33:59;;;;;;;0.50;0.40;;;12.50;99.90;;;;;;4951839;29;20092;-74
2022/09/17 10:36:43;;;;;;;0.25;0.25;;;12.50;99.90;;;;;;4950901;29;20035;-75
2022/09/17 10:39:22;;;;;;;0.50;0.40;;;12.60;99.90;;;;;;4950887;28;20674;-75
2022/09/17 10:41:54;;;;;;;0.68;0.40;;;12.50;99.90;;;;;;4951910;29;20028;-74
2022/09/17 10:44:23;;;;;;;0.30;0.30;;;12.60;99.90;;;;;;4950859;29;20489;-75
2022/09/17 10:46:50;;;;;;;0.45;0.45;;;12.50;99.90;;;;;;4950467;28;20019;-75
2022/09/17 10:49:35;;;;;;;4.13;0.30;;;12.50;99.90;;;;;;4951860;29;20114;-74
2022/09/17 10:52:31;;;;;;;0.55;0.55;;;12.30;99.90;;;;;;4950387;29;20102;-75
2022/09/17 10:55:12;;;;;;;1.10;0.43;;;12.30;99.90;;;;;;4947196;29;20037;-75
2022/09/17 10:58:08;;;;;;;0.50;0.32;;;12.30;99.90;;;;;;4951938;28;20028;-75
2022/09/17 11:00:51;;;;;;;1.08;0.95;;;12.60;99.90;;;;;;4951605;29;20110;-75
2022/09/17 11:04:03;;;;;;;3.55;0.50;;;12.50;99.90;;;;;;4961495;29;20038;-75
2022/09/17 11:06:43;;;;;;;1.35;0.57;;;12.60;99.90;;;;;;4946485;28;20027;-75
2022/09/17 11:09:21;;;;;;;0.55;0.55;;;12.70;99.90;;;;;;4957717;28;20098;-75
2022/09/17 11:12:22;;;;;;;0.63;0.63;;;12.90;99.90;;;;;;4951638;28;20120;-75
2022/09/17 11:15:23;;;;;;;0.52;0.32;;;13.30;99.90;;;;;;4951503;29;20019;-75
2022/09/17 11:18:03;;;;;;;1.02;0.45;;;13.40;99.90;;;;;;4951237;29;20031;-74
2022/09/17 11:21:10;;;;;;;0.20;0.20;;;13.20;99.90;;;;;;4952675;28;20027;-75
2022/09/17 11:24:13;;;;;;;3.40;0.22;;;13.00;99.90;;;;;;4958930;29;20112;-75
2022/09/17 11:26:56;;;;;;;0.20;0.20;;;13.00;99.90;;;;;;4963408;29;20256;-76
2022/09/17 11:29:35;;;;;;;0.52;0.22;;;13.00;99.90;;;;;;4964328;28;20082;-77
2022/09/17 11:32:07;;;;;;;0.50;0.40;;;13.40;99.90;;;;;;4978191;28;20031;-77
2022/09/17 11:34:35;;;;;;;1.27;1.17;;;13.20;99.90;;;;;;4965318;29;20031;-77
2022/09/17 11:37:09;;;;;;;0.95;0.73;;;13.00;99.90;;;;;;4960638;29;20511;-77
2022/09/17 11:40:04;;;;;;;0.20;0.20;;;13.50;99.90;;;;;;4954558;28;20023;-77
2022/09/17 11:42:38;;;;;;;2.60;0.40;;;13.50;99.90;;;;;;4918994;28;20032;-78
2022/09/17 11:45:28;;;;;;;0.50;0.50;;;13.30;99.90;;;;;;4971589;28;20027;-77
2022/09/17 11:48:18;;;;;;;1.45;1.17;;;13.70;99.90;;;;;;4958969;28;20027;-77
2022/09/17 11:50:57;;;;;;;0.52;0.40;;;14.00;99.90;;;;;;4969917;28;20023;-77
2022/09/17 11:53:48;;;;;;;1.15;0.30;;;14.40;99.90;;;;;;4957560;28;20082;-77
2022/09/17 11:56:25;;;;;;;0.52;0.10;;;14.20;99.90;;;;;;4953943;29;20102;-77
2022/09/17 11:59:04;;;;;;;0.70;0.70;;;14.10;99.90;;;;;;4954412;29;20032;-76
2022/09/17 12:01:51;;;;;;;0.45;0.40;;;14.30;99.90;;;;;;4955775;28;20028;-76
2022/09/17 12:04:22;;;;;;;1.20;0.50;;;14.60;99.90;;;;;;4953092;29;20034;-76
2022/09/17 12:06:55;;;;;;;0.30;0.30;;;14.20;99.90;;;;;;4941060;29;20035;-76
2022/09/17 12:09:27;;;;;;;0.20;0.20;;;13.80;99.90;;;;;;4937118;29;20055;-77
2022/09/17 12:12:02;;;;;;;0.63;0.63;;;13.60;99.90;;;;;;4939711;29;20039;-77
2022/09/17 12:14:48;;;;;;;1.20;0.95;;;13.40;99.90;;;;;;4935195;29;20167;-76
2022/09/17 12:17:46;;;;;;;4.72;0.77;;;13.30;99.90;;;;;;4933379;29;20480;-76
2022/09/17 12:20:44;;;;;;;0.15;0.15;;;12.90;99.90;;;;;;4938440;29;20082;-76
2022/09/17 12:23:14;;;;;;;0.28;0.17;;;13.10;99.90;;;;;;4931498;29;20046;-77
2022/09/17 12:26:06;;;;;;;0.30;0.22;;;13.50;99.90;;;;;;4936816;29;20030;-76
2022/09/17 12:28:58;;;;;;;0.30;0.30;;;13.70;99.90;;;;;;4934893;29;20031;-76
2022/09/17 12:31:41;;;;;;;1.27;0.38;;;14.50;99.90;;;;;;4934898;29;20444;-77
2022/09/17 12:34:37;;;;;;;2.60;0.50;;;14.60;99.90;;;;;;4933954;29;20024;-77
2022/09/17 12:37:07;;;;;;;0.10;0.10;;;14.80;99.90;;;;;;4948714;29;20046;-76
2022/09/17 12:40:06;;;;;;;0.85;0.60;;;15.10;99.90;;;;;;4936263;29;20060;-76
2022/09/17 12:42:38;;;;;;;0.60;0.50;;;14.80;99.90;;;;;;4935647;29;20047;-77
2022/09/17 12:45:23;;;;;;;0.32;0.32;;;14.60;99.90;;;;;;4949331;29;20176;-75
2022/09/17 12:48:17;;;;;;;1.08;0.55;;;14.20;99.90;;;;;;4932338;28;20116;-77
2022/09/17 12:50:45;;;;;;;5.88;1.45;;;13.80;99.90;;;;;;4938220;29;20033;-77
2022/09/17 12:53:20;;;;;;;0.10;0.10;;;13.30;99.90;;;;;;4935888;29;20550;-78
2022/09/17 12:56:04;;;;;;;2.67;0.30;;;13.20;99.90;;;;;;4934192;29;20052;-77
2022/09/17 12:58:54;;;;;;;1.55;0.93;;;13.30;99.90;;;;;;4934025;29;20031;-78
2022/09/17 13:01:41;;;;;;;0.40;0.40;;;13.70;99.90;;;;;;4949132;29;20034;-78
2022/09/17 13:04:16;;;;;;;0.10;0.10;;;14.20;99.90;;;;;;4935078;29;20028;-78
2022/09/17 13:06:59;;;;;;;0.28;0.28;;;14.20;99.90;;;;;;4937780;29;20023;-79
2022/09/17 13:09:46;;;;;;;0.88;0.65;;;14.00;99.90;;;;;;4953945;29;20306;-78
2022/09/17 13:12:31;;;;;;;0.57;0.57;;;13.80;99.90;;;;;;4967183;28;20767;-77
2022/09/17 13:15:09;;;;;;;0.43;0.40;;;15.80;99.90;;;;;;4949862;29;20031;-79
2022/09/17 13:17:57;;;;;;;0.17;0.13;;;15.40;99.90;;;;;;4952101;28;20326;-78
2022/09/17 13:20:28;;;;;;;0.65;0.65;;;15.80;99.00;;;;;;4954011;28;20030;-79
2022/09/17 13:22:56;;;;;;;7.28;0.20;;;16.40;93.20;;;;;;4953397;28;20031;-82